sensor_id;sensor_type;location;lat;lon;timestamp;P1;durP1;ratioP1;P2;durP2;ratioP2
13785;SDS011;47474;48.824;9.384;2022-07-29T00:01:20;4.70;;;4.30;;
13785;SDS011;47474;48.824;9.384;2022-07-29T00:03:47;5.43;;;4.18;;
13785;SDS011;47474;48.824;9.384;2022-07-29T00:06:41;4.88;;;4.18;;
13785;SDS011;47474;48.824;9.384;2022-07-29T00:09:08;4.10;;;3.80;;
13785;SDS011;47474;48.824;9.384;2022-07-29T00:11:51;4.65;;;4.13;;
13785;SDS011;47474;48.824;9.384;2022-07-29T00:14:24;5.47;;;3.70;;
13785;SDS011;47474;48.824;9.384;2022-07-29T00:16:54;3.55;;;3.25;;
13785;SDS011;47474;48.824;9.384;2022-07-29T00:19:35;4.60;;;4.20;;
13785;SDS011;47474;48.824;9.384;2022-07-29T00:22:04;4.85;;;3.85;;
13785;SDS011;47474;48.824;9.384;2022-07-29T00:24:59;4.40;;;4.00;;
13785;SDS011;47474;48.824;9.384;2022-07-29T00:27:56;4.35;;;3.97;;
13785;SDS011;47474;48.824;9.384;2022-07-29T00:30:22;4.03;;;3.72;;
13785;SDS011;47474;48.824;9.384;2022-07-29T00:32:49;4.05;;;3.72;;
13785;SDS011;47474;48.824;9.384;2022-07-29T00:35:16;4.13;;;3.70;;
13785;SDS011;47474;48.824;9.384;2022-07-29T00:38:01;4.75;;;4.20;;
13785;SDS011;47474;48.824;9.384;2022-07-29T00:40:28;4.85;;;4.03;;
13785;SDS011;47474;48.824;9.384;2022-07-29T00:43:19;3.97;;;3.67;;
13785;SDS011;47474;48.824;9.384;2022-07-29T00:45:54;4.90;;;4.40;;
13785;SDS011;47474;48.824;9.384;2022-07-29T00:48:21;7.22;;;4.03;;
13785;SDS011;47474;48.824;9.384;2022-07-29T00:50:48;5.40;;;4.13;;
13785;SDS011;47474;48.824;9.384;2022-07-29T00:53:17;5.00;;;4.50;;
13785;SDS011;47474;48.824;9.384;2022-07-29T00:55:44;5.05;;;4.47;;
13785;SDS011;47474;48.824;9.384;2022-07-29T00:58:24;6.78;;;4.50;;
13785;SDS011;47474;48.824;9.384;2022-07-29T01:01:11;5.03;;;4.53;;
13785;SDS011;47474;48.824;9.384;2022-07-29T01:03:39;5.13;;;4.68;;
13785;SDS011;47474;48.824;9.384;2022-07-29T01:06:23;6.40;;;4.63;;
13785;SDS011;47474;48.824;9.384;2022-07-29T01:09:05;4.82;;;4.38;;
13785;SDS011;47474;48.824;9.384;2022-07-29T01:11:32;5.63;;;4.63;;
13785;SDS011;47474;48.824;9.384;2022-07-29T01:13:59;5.28;;;4.78;;
13785;SDS011;47474;48.824;9.384;2022-07-29T01:16:46;6.20;;;4.85;;
13785;SDS011;47474;48.824;9.384;2022-07-29T01:19:38;5.22;;;4.72;;
13785;SDS011;47474;48.824;9.384;2022-07-29T01:25:58;4.55;;;4.18;;
13785;SDS011;47474;48.824;9.384;2022-07-29T01:31:45;4.78;;;4.38;;
13785;SDS011;47474;48.824;9.384;2022-07-29T01:34:27;5.40;;;4.63;;
13785;SDS011;47474;48.824;9.384;2022-07-29T01:37:36;5.03;;;4.63;;
13785;SDS011;47474;48.824;9.384;2022-07-29T01:40:26;5.05;;;4.20;;
13785;SDS011;47474;48.824;9.384;2022-07-29T01:43:36;4.90;;;4.40;;
13785;SDS011;47474;48.824;9.384;2022-07-29T01:46:09;4.78;;;4.38;;
13785;SDS011;47474;48.824;9.384;2022-07-29T01:48:59;5.00;;;4.53;;
13785;SDS011;47474;48.824;9.384;2022-07-29T01:51:32;4.25;;;3.90;;
13785;SDS011;47474;48.824;9.384;2022-07-29T01:54:26;4.90;;;4.50;;
13785;SDS011;47474;48.824;9.384;2022-07-29T01:57:32;4.82;;;4.32;;
13785;SDS011;47474;48.824;9.384;2022-07-29T01:59:59;5.40;;;4.55;;
13785;SDS011;47474;48.824;9.384;2022-07-29T02:02:30;4.95;;;4.55;;
13785;SDS011;47474;48.824;9.384;2022-07-29T02:04:58;5.22;;;4.50;;
13785;SDS011;47474;48.824;9.384;2022-07-29T02:07:27;5.50;;;4.47;;
13785;SDS011;47474;48.824;9.384;2022-07-29T02:09:55;4.80;;;4.28;;
13785;SDS011;47474;48.824;9.384;2022-07-29T02:12:23;5.65;;;4.30;;
13785;SDS011;47474;48.824;9.384;2022-07-29T02:14:58;5.20;;;4.03;;
13785;SDS011;47474;48.824;9.384;2022-07-29T02:17:59;5.93;;;4.28;;
13785;SDS011;47474;48.824;9.384;2022-07-29T02:20:46;4.82;;;4.43;;
13785;SDS011;47474;48.824;9.384;2022-07-29T02:23:17;5.05;;;4.43;;
13785;SDS011;47474;48.824;9.384;2022-07-29T02:25:46;4.70;;;4.18;;
13785;SDS011;47474;48.824;9.384;2022-07-29T02:28:14;6.22;;;5.15;;
13785;SDS011;47474;48.824;9.384;2022-07-29T02:30:44;5.18;;;4.43;;
13785;SDS011;47474;48.824;9.384;2022-07-29T02:33:14;4.93;;;4.43;;
13785;SDS011;47474;48.824;9.384;2022-07-29T02:35:44;5.97;;;4.80;;
13785;SDS011;47474;48.824;9.384;2022-07-29T02:38:31;4.80;;;4.40;;
13785;SDS011;47474;48.824;9.384;2022-07-29T02:41:16;5.03;;;4.53;;
13785;SDS011;47474;48.824;9.384;2022-07-29T02:44:05;5.40;;;4.90;;
13785;SDS011;47474;48.824;9.384;2022-07-29T02:46:51;5.28;;;4.78;;
13785;SDS011;47474;48.824;9.384;2022-07-29T02:52:42;4.80;;;4.40;;
13785;SDS011;47474;48.824;9.384;2022-07-29T02:55:43;5.55;;;4.80;;
13785;SDS011;47474;48.824;9.384;2022-07-29T02:58:34;5.40;;;4.25;;
13785;SDS011;47474;48.824;9.384;2022-07-29T03:03:48;4.80;;;4.40;;
13785;SDS011;47474;48.824;9.384;2022-07-29T03:06:20;5.68;;;5.03;;
13785;SDS011;47474;48.824;9.384;2022-07-29T03:09:10;5.40;;;4.90;;
13785;SDS011;47474;48.824;9.384;2022-07-29T03:11:37;5.63;;;4.95;;
13785;SDS011;47474;48.824;9.384;2022-07-29T03:14:05;6.07;;;5.00;;
13785;SDS011;47474;48.824;9.384;2022-07-29T03:16:32;5.90;;;4.63;;
13785;SDS011;47474;48.824;9.384;2022-07-29T03:21:56;4.55;;;4.15;;
13785;SDS011;47474;48.824;9.384;2022-07-29T03:24:26;5.25;;;4.75;;
13785;SDS011;47474;48.824;9.384;2022-07-29T03:26:54;4.82;;;4.43;;
13785;SDS011;47474;48.824;9.384;2022-07-29T03:29:21;5.40;;;4.90;;
13785;SDS011;47474;48.824;9.384;2022-07-29T03:31:47;5.35;;;4.90;;
13785;SDS011;47474;48.824;9.384;2022-07-29T03:34:16;6.47;;;4.72;;
13785;SDS011;47474;48.824;9.384;2022-07-29T03:36:43;6.00;;;5.38;;
13785;SDS011;47474;48.824;9.384;2022-07-29T03:39:11;5.80;;;5.13;;
13785;SDS011;47474;48.824;9.384;2022-07-29T03:41:40;5.78;;;5.28;;
13785;SDS011;47474;48.824;9.384;2022-07-29T03:44:08;6.68;;;5.85;;
13785;SDS011;47474;48.824;9.384;2022-07-29T03:46:35;6.35;;;5.55;;
13785;SDS011;47474;48.824;9.384;2022-07-29T03:49:02;7.82;;;6.15;;
13785;SDS011;47474;48.824;9.384;2022-07-29T03:51:30;6.03;;;5.40;;
13785;SDS011;47474;48.824;9.384;2022-07-29T03:53:57;6.53;;;5.65;;
13785;SDS011;47474;48.824;9.384;2022-07-29T03:56:25;7.30;;;6.32;;
13785;SDS011;47474;48.824;9.384;2022-07-29T03:58:52;6.72;;;6.03;;
13785;SDS011;47474;48.824;9.384;2022-07-29T04:01:19;6.57;;;6.07;;
13785;SDS011;47474;48.824;9.384;2022-07-29T04:03:46;7.22;;;6.53;;
13785;SDS011;47474;48.824;9.384;2022-07-29T04:06:14;6.60;;;5.80;;
13785;SDS011;47474;48.824;9.384;2022-07-29T04:08:41;6.18;;;5.68;;
13785;SDS011;47474;48.824;9.384;2022-07-29T04:11:07;6.80;;;5.80;;
13785;SDS011;47474;48.824;9.384;2022-07-29T04:13:35;6.10;;;5.50;;
13785;SDS011;47474;48.824;9.384;2022-07-29T04:16:02;5.88;;;5.38;;
13785;SDS011;47474;48.824;9.384;2022-07-29T04:18:29;6.68;;;5.63;;
13785;SDS011;47474;48.824;9.384;2022-07-29T04:20:55;7.43;;;5.90;;
13785;SDS011;47474;48.824;9.384;2022-07-29T04:23:25;5.30;;;4.90;;
13785;SDS011;47474;48.824;9.384;2022-07-29T04:25:52;7.60;;;5.80;;
13785;SDS011;47474;48.824;9.384;2022-07-29T04:28:18;5.78;;;5.28;;
13785;SDS011;47474;48.824;9.384;2022-07-29T04:30:46;5.88;;;5.28;;
13785;SDS011;47474;48.824;9.384;2022-07-29T04:33:13;5.65;;;5.15;;
13785;SDS011;47474;48.824;9.384;2022-07-29T04:35:40;7.00;;;5.28;;
13785;SDS011;47474;48.824;9.384;2022-07-29T04:38:06;6.93;;;5.45;;
13785;SDS011;47474;48.824;9.384;2022-07-29T04:40:33;6.65;;;5.30;;
13785;SDS011;47474;48.824;9.384;2022-07-29T04:43:00;5.88;;;5.30;;
13785;SDS011;47474;48.824;9.384;2022-07-29T04:45:27;6.13;;;5.32;;
13785;SDS011;47474;48.824;9.384;2022-07-29T04:47:55;6.28;;;5.70;;
13785;SDS011;47474;48.824;9.384;2022-07-29T04:50:22;6.50;;;5.80;;
13785;SDS011;47474;48.824;9.384;2022-07-29T04:52:48;6.25;;;5.72;;
13785;SDS011;47474;48.824;9.384;2022-07-29T04:55:15;6.15;;;5.65;;
13785;SDS011;47474;48.824;9.384;2022-07-29T04:57:42;7.40;;;6.68;;
13785;SDS011;47474;48.824;9.384;2022-07-29T05:00:09;8.57;;;5.88;;
13785;SDS011;47474;48.824;9.384;2022-07-29T05:02:36;6.65;;;5.78;;
13785;SDS011;47474;48.824;9.384;2022-07-29T05:05:04;6.55;;;5.80;;
13785;SDS011;47474;48.824;9.384;2022-07-29T05:07:31;6.30;;;5.80;;
13785;SDS011;47474;48.824;9.384;2022-07-29T05:09:57;6.70;;;5.97;;
13785;SDS011;47474;48.824;9.384;2022-07-29T05:12:24;6.30;;;5.63;;
13785;SDS011;47474;48.824;9.384;2022-07-29T05:14:51;6.88;;;6.10;;
13785;SDS011;47474;48.824;9.384;2022-07-29T05:17:18;6.85;;;6.15;;
13785;SDS011;47474;48.824;9.384;2022-07-29T05:19:44;6.55;;;5.95;;
13785;SDS011;47474;48.824;9.384;2022-07-29T05:22:12;7.47;;;6.72;;
13785;SDS011;47474;48.824;9.384;2022-07-29T05:24:39;7.18;;;6.50;;
13785;SDS011;47474;48.824;9.384;2022-07-29T05:27:06;6.35;;;5.75;;
13785;SDS011;47474;48.824;9.384;2022-07-29T05:29:33;8.60;;;6.65;;
13785;SDS011;47474;48.824;9.384;2022-07-29T05:31:59;8.43;;;6.32;;
13785;SDS011;47474;48.824;9.384;2022-07-29T05:34:26;7.43;;;6.70;;
13785;SDS011;47474;48.824;9.384;2022-07-29T05:36:52;6.53;;;5.90;;
13785;SDS011;47474;48.824;9.384;2022-07-29T05:39:20;7.20;;;5.88;;
13785;SDS011;47474;48.824;9.384;2022-07-29T05:41:48;6.82;;;6.20;;
13785;SDS011;47474;48.824;9.384;2022-07-29T05:44:14;7.53;;;6.82;;
13785;SDS011;47474;48.824;9.384;2022-07-29T05:46:41;5.88;;;5.38;;
13785;SDS011;47474;48.824;9.384;2022-07-29T05:49:08;7.75;;;6.03;;
13785;SDS011;47474;48.824;9.384;2022-07-29T05:51:35;6.57;;;5.97;;
13785;SDS011;47474;48.824;9.384;2022-07-29T05:54:01;6.65;;;5.85;;
13785;SDS011;47474;48.824;9.384;2022-07-29T05:56:30;6.03;;;5.43;;
13785;SDS011;47474;48.824;9.384;2022-07-29T05:58:56;6.65;;;6.05;;
13785;SDS011;47474;48.824;9.384;2022-07-29T06:01:23;8.88;;;6.55;;
13785;SDS011;47474;48.824;9.384;2022-07-29T06:03:50;8.65;;;5.88;;
13785;SDS011;47474;48.824;9.384;2022-07-29T06:06:16;6.63;;;6.03;;
13785;SDS011;47474;48.824;9.384;2022-07-29T06:08:43;7.07;;;6.38;;
13785;SDS011;47474;48.824;9.384;2022-07-29T06:11:10;6.70;;;6.00;;
13785;SDS011;47474;48.824;9.384;2022-07-29T06:13:38;7.18;;;6.43;;
13785;SDS011;47474;48.824;9.384;2022-07-29T06:16:05;7.13;;;6.43;;
13785;SDS011;47474;48.824;9.384;2022-07-29T06:18:31;7.38;;;6.57;;
13785;SDS011;47474;48.824;9.384;2022-07-29T06:20:58;8.00;;;6.63;;
13785;SDS011;47474;48.824;9.384;2022-07-29T06:23:25;7.28;;;6.20;;
13785;SDS011;47474;48.824;9.384;2022-07-29T06:25:51;6.53;;;5.93;;
13785;SDS011;47474;48.824;9.384;2022-07-29T06:28:18;6.20;;;5.60;;
13785;SDS011;47474;48.824;9.384;2022-07-29T06:30:46;6.28;;;5.68;;
13785;SDS011;47474;48.824;9.384;2022-07-29T06:33:16;6.60;;;5.97;;
13785;SDS011;47474;48.824;9.384;2022-07-29T06:35:42;6.20;;;5.60;;
13785;SDS011;47474;48.824;9.384;2022-07-29T06:38:10;6.30;;;5.70;;
13785;SDS011;47474;48.824;9.384;2022-07-29T06:40:40;6.07;;;5.15;;
13785;SDS011;47474;48.824;9.384;2022-07-29T06:43:24;6.40;;;5.80;;
13785;SDS011;47474;48.824;9.384;2022-07-29T06:45:53;4.82;;;4.43;;
13785;SDS011;47474;48.824;9.384;2022-07-29T06:48:19;4.75;;;4.35;;
13785;SDS011;47474;48.824;9.384;2022-07-29T06:50:46;4.63;;;4.22;;
13785;SDS011;47474;48.824;9.384;2022-07-29T06:53:12;4.45;;;4.05;;
13785;SDS011;47474;48.824;9.384;2022-07-29T06:55:39;5.10;;;4.47;;
13785;SDS011;47474;48.824;9.384;2022-07-29T06:58:06;4.45;;;4.05;;
13785;SDS011;47474;48.824;9.384;2022-07-29T07:00:34;3.50;;;3.20;;
13785;SDS011;47474;48.824;9.384;2022-07-29T07:03:04;3.95;;;3.55;;
13785;SDS011;47474;48.824;9.384;2022-07-29T07:05:31;4.30;;;4.00;;
13785;SDS011;47474;48.824;9.384;2022-07-29T07:07:58;4.60;;;3.70;;
13785;SDS011;47474;48.824;9.384;2022-07-29T07:10:24;3.80;;;3.50;;
13785;SDS011;47474;48.824;9.384;2022-07-29T07:12:51;4.20;;;3.78;;
13785;SDS011;47474;48.824;9.384;2022-07-29T07:15:18;4.47;;;3.90;;
13785;SDS011;47474;48.824;9.384;2022-07-29T07:17:47;3.50;;;3.17;;
13785;SDS011;47474;48.824;9.384;2022-07-29T07:20:16;3.60;;;3.30;;
13785;SDS011;47474;48.824;9.384;2022-07-29T07:22:43;3.53;;;3.22;;
13785;SDS011;47474;48.824;9.384;2022-07-29T07:25:11;3.60;;;3.30;;
13785;SDS011;47474;48.824;9.384;2022-07-29T07:27:38;5.18;;;3.28;;
13785;SDS011;47474;48.824;9.384;2022-07-29T07:30:05;4.20;;;3.65;;
13785;SDS011;47474;48.824;9.384;2022-07-29T07:32:33;3.45;;;3.22;;
13785;SDS011;47474;48.824;9.384;2022-07-29T07:35:00;3.30;;;3.10;;
13785;SDS011;47474;48.824;9.384;2022-07-29T07:37:28;3.65;;;2.97;;
13785;SDS011;47474;48.824;9.384;2022-07-29T07:39:55;3.03;;;2.75;;
13785;SDS011;47474;48.824;9.384;2022-07-29T07:42:22;3.42;;;3.13;;
13785;SDS011;47474;48.824;9.384;2022-07-29T07:44:51;3.30;;;3.03;;
13785;SDS011;47474;48.824;9.384;2022-07-29T07:47:18;3.90;;;3.05;;
13785;SDS011;47474;48.824;9.384;2022-07-29T07:49:49;3.63;;;3.33;;
13785;SDS011;47474;48.824;9.384;2022-07-29T07:52:16;3.00;;;2.80;;
13785;SDS011;47474;48.824;9.384;2022-07-29T07:54:45;3.05;;;2.80;;
13785;SDS011;47474;48.824;9.384;2022-07-29T07:57:12;3.42;;;3.20;;
13785;SDS011;47474;48.824;9.384;2022-07-29T07:59:39;3.38;;;3.08;;
13785;SDS011;47474;48.824;9.384;2022-07-29T08:02:06;3.65;;;3.35;;
13785;SDS011;47474;48.824;9.384;2022-07-29T08:04:33;3.08;;;2.78;;
13785;SDS011;47474;48.824;9.384;2022-07-29T08:07:00;3.70;;;3.25;;
13785;SDS011;47474;48.824;9.384;2022-07-29T08:09:27;4.13;;;3.35;;
13785;SDS011;47474;48.824;9.384;2022-07-29T08:11:56;3.05;;;2.72;;
13785;SDS011;47474;48.824;9.384;2022-07-29T08:14:23;6.40;;;5.45;;
13785;SDS011;47474;48.824;9.384;2022-07-29T08:16:50;4.20;;;3.80;;
13785;SDS011;47474;48.824;9.384;2022-07-29T08:19:16;3.55;;;3.25;;
13785;SDS011;47474;48.824;9.384;2022-07-29T08:21:43;3.85;;;3.08;;
13785;SDS011;47474;48.824;9.384;2022-07-29T08:24:10;3.53;;;3.22;;
13785;SDS011;47474;48.824;9.384;2022-07-29T08:26:55;4.38;;;3.10;;
13785;SDS011;47474;48.824;9.384;2022-07-29T08:29:23;3.08;;;2.78;;
13785;SDS011;47474;48.824;9.384;2022-07-29T08:31:50;3.05;;;2.75;;
13785;SDS011;47474;48.824;9.384;2022-07-29T08:34:17;3.05;;;2.75;;
13785;SDS011;47474;48.824;9.384;2022-07-29T08:36:43;4.18;;;3.63;;
13785;SDS011;47474;48.824;9.384;2022-07-29T08:39:10;3.70;;;3.38;;
13785;SDS011;47474;48.824;9.384;2022-07-29T08:41:37;3.50;;;3.03;;
13785;SDS011;47474;48.824;9.384;2022-07-29T08:44:05;3.85;;;3.45;;
13785;SDS011;47474;48.824;9.384;2022-07-29T08:46:32;3.78;;;2.92;;
13785;SDS011;47474;48.824;9.384;2022-07-29T08:49:01;4.35;;;3.38;;
13785;SDS011;47474;48.824;9.384;2022-07-29T08:51:28;4.03;;;3.28;;
13785;SDS011;47474;48.824;9.384;2022-07-29T08:53:54;4.07;;;3.67;;
13785;SDS011;47474;48.824;9.384;2022-07-29T08:56:22;3.38;;;3.08;;
13785;SDS011;47474;48.824;9.384;2022-07-29T08:58:49;4.05;;;3.33;;
13785;SDS011;47474;48.824;9.384;2022-07-29T09:01:24;3.88;;;3.00;;
13785;SDS011;47474;48.824;9.384;2022-07-29T09:03:51;3.63;;;3.28;;
13785;SDS011;47474;48.824;9.384;2022-07-29T09:06:21;4.55;;;3.35;;
13785;SDS011;47474;48.824;9.384;2022-07-29T09:08:48;3.55;;;3.25;;
13785;SDS011;47474;48.824;9.384;2022-07-29T09:11:16;3.25;;;2.92;;
13785;SDS011;47474;48.824;9.384;2022-07-29T09:13:42;3.53;;;3.22;;
13785;SDS011;47474;48.824;9.384;2022-07-29T09:16:09;4.55;;;3.63;;
13785;SDS011;47474;48.824;9.384;2022-07-29T09:18:38;3.83;;;3.33;;
13785;SDS011;47474;48.824;9.384;2022-07-29T09:21:08;3.08;;;2.78;;
13785;SDS011;47474;48.824;9.384;2022-07-29T09:24:03;3.38;;;3.08;;
13785;SDS011;47474;48.824;9.384;2022-07-29T09:26:31;5.45;;;3.42;;
13785;SDS011;47474;48.824;9.384;2022-07-29T09:28:59;3.97;;;3.20;;
13785;SDS011;47474;48.824;9.384;2022-07-29T09:31:31;3.33;;;2.90;;
13785;SDS011;47474;48.824;9.384;2022-07-29T09:34:01;3.72;;;3.38;;
13785;SDS011;47474;48.824;9.384;2022-07-29T09:36:28;4.75;;;3.28;;
13785;SDS011;47474;48.824;9.384;2022-07-29T09:38:58;4.00;;;3.30;;
13785;SDS011;47474;48.824;9.384;2022-07-29T09:41:26;4.03;;;3.63;;
13785;SDS011;47474;48.824;9.384;2022-07-29T09:43:53;4.47;;;3.30;;
13785;SDS011;47474;48.824;9.384;2022-07-29T09:46:20;3.40;;;3.10;;
13785;SDS011;47474;48.824;9.384;2022-07-29T09:48:52;3.58;;;3.28;;
13785;SDS011;47474;48.824;9.384;2022-07-29T09:51:33;3.50;;;3.20;;
13785;SDS011;47474;48.824;9.384;2022-07-29T09:54:00;3.40;;;3.10;;
13785;SDS011;47474;48.824;9.384;2022-07-29T09:56:38;4.00;;;3.38;;
13785;SDS011;47474;48.824;9.384;2022-07-29T09:59:06;4.15;;;3.40;;
13785;SDS011;47474;48.824;9.384;2022-07-29T10:01:33;5.25;;;3.70;;
13785;SDS011;47474;48.824;9.384;2022-07-29T10:04:00;4.32;;;2.95;;
13785;SDS011;47474;48.824;9.384;2022-07-29T10:06:29;6.30;;;3.50;;
13785;SDS011;47474;48.824;9.384;2022-07-29T10:09:06;4.28;;;3.40;;
13785;SDS011;47474;48.824;9.384;2022-07-29T10:11:33;3.75;;;3.13;;
13785;SDS011;47474;48.824;9.384;2022-07-29T10:14:01;5.18;;;3.70;;
13785;SDS011;47474;48.824;9.384;2022-07-29T10:16:28;4.05;;;3.63;;
13785;SDS011;47474;48.824;9.384;2022-07-29T10:19:14;3.72;;;3.20;;
13785;SDS011;47474;48.824;9.384;2022-07-29T10:21:42;6.38;;;3.55;;
13785;SDS011;47474;48.824;9.384;2022-07-29T10:24:09;3.80;;;3.50;;
13785;SDS011;47474;48.824;9.384;2022-07-29T10:26:36;3.83;;;3.40;;
13785;SDS011;47474;48.824;9.384;2022-07-29T10:29:05;3.95;;;3.35;;
13785;SDS011;47474;48.824;9.384;2022-07-29T10:31:34;4.03;;;3.40;;
13785;SDS011;47474;48.824;9.384;2022-07-29T10:34:10;4.05;;;3.63;;
13785;SDS011;47474;48.824;9.384;2022-07-29T10:36:46;4.55;;;3.05;;
13785;SDS011;47474;48.824;9.384;2022-07-29T10:39:21;5.35;;;3.30;;
13785;SDS011;47474;48.824;9.384;2022-07-29T10:42:02;4.20;;;3.85;;
13785;SDS011;47474;48.824;9.384;2022-07-29T10:44:39;5.60;;;3.75;;
13785;SDS011;47474;48.824;9.384;2022-07-29T10:47:19;3.88;;;3.58;;
13785;SDS011;47474;48.824;9.384;2022-07-29T10:49:54;3.97;;;3.30;;
13785;SDS011;47474;48.824;9.384;2022-07-29T10:52:26;4.70;;;3.72;;
13785;SDS011;47474;48.824;9.384;2022-07-29T10:55:33;5.80;;;3.90;;
13785;SDS011;47474;48.824;9.384;2022-07-29T10:58:14;7.13;;;3.92;;
13785;SDS011;47474;48.824;9.384;2022-07-29T11:00:42;5.75;;;3.53;;
13785;SDS011;47474;48.824;9.384;2022-07-29T11:03:08;8.02;;;4.20;;
13785;SDS011;47474;48.824;9.384;2022-07-29T11:05:54;5.20;;;3.90;;
13785;SDS011;47474;48.824;9.384;2022-07-29T11:08:34;4.10;;;3.70;;
13785;SDS011;47474;48.824;9.384;2022-07-29T11:13:58;4.75;;;3.53;;
13785;SDS011;47474;48.824;9.384;2022-07-29T11:16:57;3.95;;;3.53;;
13785;SDS011;47474;48.824;9.384;2022-07-29T11:19:25;4.50;;;3.47;;
13785;SDS011;47474;48.824;9.384;2022-07-29T11:21:51;3.45;;;3.15;;
13785;SDS011;47474;48.824;9.384;2022-07-29T11:24:23;4.30;;;3.90;;
13785;SDS011;47474;48.824;9.384;2022-07-29T11:27:12;5.25;;;4.05;;
13785;SDS011;47474;48.824;9.384;2022-07-29T11:29:51;4.35;;;3.92;;
13785;SDS011;47474;48.824;9.384;2022-07-29T11:32:35;4.68;;;4.22;;
13785;SDS011;47474;48.824;9.384;2022-07-29T11:35:15;6.28;;;4.35;;
13785;SDS011;47474;48.824;9.384;2022-07-29T11:44:04;4.53;;;4.07;;
13785;SDS011;47474;48.824;9.384;2022-07-29T11:46:44;4.15;;;3.80;;
13785;SDS011;47474;48.824;9.384;2022-07-29T11:49:14;7.28;;;4.88;;
13785;SDS011;47474;48.824;9.384;2022-07-29T11:51:49;7.10;;;5.55;;
13785;SDS011;47474;48.824;9.384;2022-07-29T11:54:16;5.40;;;4.90;;
13785;SDS011;47474;48.824;9.384;2022-07-29T11:56:51;6.07;;;5.47;;
13785;SDS011;47474;48.824;9.384;2022-07-29T11:59:19;5.38;;;4.18;;
13785;SDS011;47474;48.824;9.384;2022-07-29T12:05:05;5.28;;;3.60;;
13785;SDS011;47474;48.824;9.384;2022-07-29T12:07:42;7.70;;;4.13;;
13785;SDS011;47474;48.824;9.384;2022-07-29T12:10:12;4.03;;;3.60;;
13785;SDS011;47474;48.824;9.384;2022-07-29T12:12:52;4.50;;;4.10;;
13785;SDS011;47474;48.824;9.384;2022-07-29T12:15:32;5.75;;;4.50;;
13785;SDS011;47474;48.824;9.384;2022-07-29T12:18:31;5.93;;;5.13;;
13785;SDS011;47474;48.824;9.384;2022-07-29T12:21:24;7.18;;;4.97;;
13785;SDS011;47474;48.824;9.384;2022-07-29T12:24:14;5.65;;;4.95;;
13785;SDS011;47474;48.824;9.384;2022-07-29T12:27:05;9.32;;;5.18;;
13785;SDS011;47474;48.824;9.384;2022-07-29T12:29:40;5.90;;;5.28;;
13785;SDS011;47474;48.824;9.384;2022-07-29T12:32:21;6.03;;;5.45;;
13785;SDS011;47474;48.824;9.384;2022-07-29T12:34:55;6.07;;;5.40;;
13785;SDS011;47474;48.824;9.384;2022-07-29T12:37:36;7.63;;;6.85;;
13785;SDS011;47474;48.824;9.384;2022-07-29T12:40:05;7.75;;;6.38;;
13785;SDS011;47474;48.824;9.384;2022-07-29T12:43:05;7.30;;;6.60;;
13785;SDS011;47474;48.824;9.384;2022-07-29T12:45:57;8.07;;;6.95;;
13785;SDS011;47474;48.824;9.384;2022-07-29T12:48:58;7.07;;;6.32;;
13785;SDS011;47474;48.824;9.384;2022-07-29T12:51:47;7.30;;;6.60;;
13785;SDS011;47474;48.824;9.384;2022-07-29T12:54:47;7.80;;;6.65;;
13785;SDS011;47474;48.824;9.384;2022-07-29T12:57:56;7.28;;;6.10;;
13785;SDS011;47474;48.824;9.384;2022-07-29T13:00:38;7.93;;;7.13;;
13785;SDS011;47474;48.824;9.384;2022-07-29T13:03:21;6.65;;;5.65;;
13785;SDS011;47474;48.824;9.384;2022-07-29T13:06:05;6.72;;;6.13;;
13785;SDS011;47474;48.824;9.384;2022-07-29T13:09:00;6.80;;;5.78;;
13785;SDS011;47474;48.824;9.384;2022-07-29T13:11:51;6.38;;;5.78;;
13785;SDS011;47474;48.824;9.384;2022-07-29T13:14:32;6.22;;;5.43;;
13785;SDS011;47474;48.824;9.384;2022-07-29T13:17:28;6.85;;;6.07;;
13785;SDS011;47474;48.824;9.384;2022-07-29T13:20:11;6.20;;;5.40;;
13785;SDS011;47474;48.824;9.384;2022-07-29T13:25:54;5.43;;;3.88;;
13785;SDS011;47474;48.824;9.384;2022-07-29T13:32:00;3.70;;;3.40;;
13785;SDS011;47474;48.824;9.384;2022-07-29T13:35:20;4.22;;;3.10;;
13785;SDS011;47474;48.824;9.384;2022-07-29T13:41:57;3.28;;;2.97;;
13785;SDS011;47474;48.824;9.384;2022-07-29T13:45:41;3.72;;;3.42;;
13785;SDS011;47474;48.824;9.384;2022-07-29T13:49:05;5.20;;;3.75;;
13785;SDS011;47474;48.824;9.384;2022-07-29T13:55:20;4.03;;;3.60;;
13785;SDS011;47474;48.824;9.384;2022-07-29T13:58:18;3.88;;;3.58;;
13785;SDS011;47474;48.824;9.384;2022-07-29T14:01:28;3.78;;;3.47;;
13785;SDS011;47474;48.824;9.384;2022-07-29T14:04:38;4.30;;;3.90;;
13785;SDS011;47474;48.824;9.384;2022-07-29T15:25:43;7.07;;;5.93;;
13785;SDS011;47474;48.824;9.384;2022-07-29T15:28:10;6.72;;;6.18;;
13785;SDS011;47474;48.824;9.384;2022-07-29T15:30:36;7.30;;;6.60;;
13785;SDS011;47474;48.824;9.384;2022-07-29T15:33:05;6.65;;;6.05;;
13785;SDS011;47474;48.824;9.384;2022-07-29T15:35:33;6.72;;;6.13;;
13785;SDS011;47474;48.824;9.384;2022-07-29T15:37:59;6.35;;;5.82;;
13785;SDS011;47474;48.824;9.384;2022-07-29T15:40:26;6.30;;;5.80;;
13785;SDS011;47474;48.824;9.384;2022-07-29T15:42:54;8.05;;;6.30;;
13785;SDS011;47474;48.824;9.384;2022-07-29T15:45:22;6.22;;;5.72;;
13785;SDS011;47474;48.824;9.384;2022-07-29T15:47:49;6.78;;;5.10;;
13785;SDS011;47474;48.824;9.384;2022-07-29T15:50:15;5.82;;;5.25;;
13785;SDS011;47474;48.824;9.384;2022-07-29T15:52:42;5.28;;;4.70;;
13785;SDS011;47474;48.824;9.384;2022-07-29T15:55:09;6.25;;;5.55;;
13785;SDS011;47474;48.824;9.384;2022-07-29T15:57:36;5.38;;;4.97;;
13785;SDS011;47474;48.824;9.384;2022-07-29T16:00:04;5.28;;;4.78;;
13785;SDS011;47474;48.824;9.384;2022-07-29T16:02:32;6.10;;;4.85;;
13785;SDS011;47474;48.824;9.384;2022-07-29T16:04:58;4.82;;;4.43;;
13785;SDS011;47474;48.824;9.384;2022-07-29T16:07:25;4.38;;;3.95;;
13785;SDS011;47474;48.824;9.384;2022-07-29T16:09:51;5.97;;;4.57;;
13785;SDS011;47474;48.824;9.384;2022-07-29T16:12:19;4.72;;;4.32;;
13785;SDS011;47474;48.824;9.384;2022-07-29T16:14:46;5.28;;;4.32;;
13785;SDS011;47474;48.824;9.384;2022-07-29T16:17:14;5.63;;;4.47;;
13785;SDS011;47474;48.824;9.384;2022-07-29T16:19:41;4.70;;;4.30;;
13785;SDS011;47474;48.824;9.384;2022-07-29T16:22:08;5.60;;;5.10;;
13785;SDS011;47474;48.824;9.384;2022-07-29T16:24:34;4.80;;;4.05;;
13785;SDS011;47474;48.824;9.384;2022-07-29T16:27:01;6.55;;;4.57;;
13785;SDS011;47474;48.824;9.384;2022-07-29T16:29:28;5.00;;;4.20;;
13785;SDS011;47474;48.824;9.384;2022-07-29T16:31:54;5.97;;;4.47;;
13785;SDS011;47474;48.824;9.384;2022-07-29T16:34:22;4.55;;;4.15;;
13785;SDS011;47474;48.824;9.384;2022-07-29T16:36:49;4.68;;;4.28;;
13785;SDS011;47474;48.824;9.384;2022-07-29T16:39:15;4.30;;;3.90;;
13785;SDS011;47474;48.824;9.384;2022-07-29T16:41:42;4.38;;;3.97;;
13785;SDS011;47474;48.824;9.384;2022-07-29T16:44:09;4.40;;;4.05;;
13785;SDS011;47474;48.824;9.384;2022-07-29T16:46:35;5.38;;;4.05;;
13785;SDS011;47474;48.824;9.384;2022-07-29T16:49:02;4.80;;;4.40;;
13785;SDS011;47474;48.824;9.384;2022-07-29T16:51:30;3.95;;;3.65;;
13785;SDS011;47474;48.824;9.384;2022-07-29T16:53:57;4.57;;;4.18;;
13785;SDS011;47474;48.824;9.384;2022-07-29T16:56:23;5.10;;;4.60;;
13785;SDS011;47474;48.824;9.384;2022-07-29T16:58:50;5.40;;;4.10;;
13785;SDS011;47474;48.824;9.384;2022-07-29T17:01:16;4.40;;;4.05;;
13785;SDS011;47474;48.824;9.384;2022-07-29T17:03:43;6.93;;;4.60;;
13785;SDS011;47474;48.824;9.384;2022-07-29T17:06:24;4.65;;;4.15;;
13785;SDS011;47474;48.824;9.384;2022-07-29T17:08:52;4.57;;;4.18;;
13785;SDS011;47474;48.824;9.384;2022-07-29T17:11:18;4.43;;;4.03;;
13785;SDS011;47474;48.824;9.384;2022-07-29T17:13:45;4.15;;;3.75;;
13785;SDS011;47474;48.824;9.384;2022-07-29T17:16:11;4.40;;;3.88;;
13785;SDS011;47474;48.824;9.384;2022-07-29T17:18:38;4.03;;;3.70;;
13785;SDS011;47474;48.824;9.384;2022-07-29T17:21:05;4.07;;;3.78;;
13785;SDS011;47474;48.824;9.384;2022-07-29T17:23:31;4.30;;;3.95;;